Promenljivo sa pljuskovima
Potpuno oblačno
Oblačno sa kišom
Potpuno oblačno
Oblačno sa slabom kišom
Oblačno sa slabom kišom
Oblačno sa slabom kišom
(°C)
(°C)
-3°
-3°
-2°
-2°
-2°
-2°
-1°
JJZ
JJZ
J
J
J
J
J
(km/h)
15-25
13-26
13-26
14-28
15-29
16-31
16-32
(mm)
0.1
0
2.5
0
0.1
0.2
0.1
(%)
65
10
65
26
35
57
41

Podizanje Sunca

/ -58°
sun-icon
UV 2
06:25
17:23
Rastući mesec (157°)
15:32
05:55

METAR za Барнстабл (KHYA)

Vreme Uslovi Temperatura/
Tačka rose
Vetar Vidljivost Vreme Oblaci Pritisak Promena Neobrađeno
VFR 2.2°C / -0.6°C 200º 9kt >10km - Scattered Clouds 1400ft
Overcast 8500ft
- KHYA 230411Z AUTO 20009KT 10SM SCT014 OVC085 02/M01 A2977 RMK AO2 T00221006
MVFR 1.7°C / -0.6°C 210º 8kt >10km 0.13mm precipitation Broken Clouds 1400ft
Overcast 8500ft
1008 - KHYA 230356Z AUTO 21008KT 10SM BKN014 OVC085 02/M01 A2978 RMK AO2 UPB17E27 SLP086 P0000 T00171006
VFR 1.7°C / -1.1°C 200º 6kt >10km - Few Clouds 1500ft
Broken Clouds 6500ft
Overcast 9500ft
- KHYA 230311Z AUTO 20006KT 10SM FEW015 BKN065 OVC095 02/M01 A2979 RMK AO2 T00171011
MVFR 1.1°C / -1.1°C 210º 9kt >10km - Overcast 1500ft - KHYA 230248Z 21009KT 10SM OVC015 01/M01 A2981 RMK AO2 T00111011
MVFR 1.1°C / -1.7°C 200º 7kt >10km - Overcast 1400ft - KHYA 230211Z 20007KT 10SM OVC014 01/M02 A2981 RMK AO2 T00111017
MVFR 1.1°C / -2.2°C 210º 7kt >10km - Overcast 1500ft 1010 - KHYA 230056Z 21007KT 10SM OVC015 01/M02 A2982 RMK AO2 SLP101 T00111022
MVFR 0.6°C / -2.2°C 210º 8kt >10km - Overcast 1500ft - KHYA 230036Z 21008KT 10SM OVC015 01/M02 A2983 RMK AO2 T00061022
MVFR 0.6°C / -2.2°C 220º 10kt >10km - Broken Clouds 1400ft
Overcast 12000ft
- KHYA 230017Z 22010KT 10SM BKN014 OVC120 01/M02 A2983 RMK AO2 T00061022
MVFR 0°C / -2.8°C 220º 8kt >10km - Broken Clouds 1500ft 1010 - KHYA 222356Z 22008KT 10SM BKN015 00/M03 A2984 RMK AO2 SLP106 T00001028 10011 21006 56006
VFR 0°C / -3.3°C 230º 7kt >10km - Few Clouds 12000ft 1011 - KHYA 222256Z 23007KT 10SM FEW120 00/M03 A2985 RMK AO2 SLP111 T00001033
VFR 0.6°C / -3.9°C 220º 11kt >10km - Clear 1011 - KHYA 222156Z 22011KT 10SM CLR 01/M04 A2986 RMK AO2 SLP112 T00061039
VFR 1.1°C / -3.3°C 200º 10kt >10km - Clear 1011 - KHYA 222056Z 20010KT 10SM CLR 01/M03 A2987 RMK AO2 SLP118 T00111033 56026
VFR 0.6°C / -3.3°C 220º 10kt >10km - Clear 1012 - KHYA 221956Z 22010KT 10SM CLR 01/M03 A2990 RMK AO2 SLP127 T00061033
VFR 1.1°C / -3.9°C 210º 9kt >10km - Clear 1013 - KHYA 221856Z 21009KT 10SM CLR 01/M04 A2991 RMK AO2 SLP131 T00111039
VFR 0.6°C / -4.4°C 210º 6kt >10km - Clear 1014 - KHYA 221756Z 21006KT 10SM CLR 01/M04 A2995 RMK AO2 SLP144 T00061044 10011 21072 57039
VFR 0.6°C / -4.4°C 200º 5kt >10km - Clear 1015 - KHYA 221656Z 20005KT 10SM CLR 01/M04 A2999 RMK AO2 SLP157 T00061044
VFR 0.6°C / -3.9°C 5kt >10km - Clear 1017 - KHYA 221556Z VRB05KT 10SM CLR 01/M04 A3003 RMK AO2 SLP170 T00061039
VFR 0°C / -4.4°C 230º 4kt >10km - Few Clouds 2100ft 1018 - KHYA 221456Z 23004KT 10SM FEW021 00/M04 A3007 RMK AO2 SLP183 T00001044 56019
MVFR 0°C / -3.3°C 40º 4kt >10km - Overcast 2100ft 1019 - KHYA 221356Z 04004KT 10SM OVC021 00/M03 A3009 RMK AO2 SLP192 T00001033
MVFR -3.3°C / -5.6°C variable 0kt >10km - Broken Clouds 2100ft 1020 - KHYA 221256Z 00000KT 10SM BKN021 M03/M06 A3012 RMK AO2 SLP202 T10331056
MVFR -5.6°C / -6.1°C variable 0kt >10km - Broken Clouds 2100ft - KHYA 221229Z 00000KT 10SM BKN021 M06/M06 A3013 RMK AO2 T10561061
VFR -6.7°C / -8.3°C variable 0kt >10km - Few Clouds 1900ft 1020 - KHYA 221156Z 00000KT 10SM FEW019 M07/M08 A3012 RMK AO2 SLP203 I1000 I6000 T10671083 11044 21078 56014
VFR -7.2°C / -8.9°C variable 0kt >10km - Clear 1020 - KHYA 221056Z 00000KT 10SM CLR M07/M09 A3013 RMK AO2 SLP203 I1000 T10721089
VFR -6.1°C / -7.8°C variable 0kt >10km - Scattered Clouds 2000ft 1021 - KHYA 220956Z AUTO 00000KT 10SM SCT020 M06/M08 A3015 RMK AO2 SLP211 I1000 T10611078

VFR

2.2°C / -0.6°C

[Više]
Vetar 200º 9kt
Vidljivost >10km
Vreme -
Oblaci Scattered Clouds 1400ft
Overcast 8500ft
Pritisak
Promena -
Neobrađeno KHYA 230411Z AUTO 20009KT 10SM SCT014 OVC085 02/M01 A2977 RMK AO2 T00221006

MVFR

1.7°C / -0.6°C

[Više]
Vetar 210º 8kt
Vidljivost >10km
Vreme 0.13mm precipitation
Oblaci Broken Clouds 1400ft
Overcast 8500ft
Pritisak 1008
Promena -
Neobrađeno KHYA 230356Z AUTO 21008KT 10SM BKN014 OVC085 02/M01 A2978 RMK AO2 UPB17E27 SLP086 P0000 T00171006

VFR

1.7°C / -1.1°C

[Više]
Vetar 200º 6kt
Vidljivost >10km
Vreme -
Oblaci Few Clouds 1500ft
Broken Clouds 6500ft
Overcast 9500ft
Pritisak
Promena -
Neobrađeno KHYA 230311Z AUTO 20006KT 10SM FEW015 BKN065 OVC095 02/M01 A2979 RMK AO2 T00171011

MVFR

1.1°C / -1.1°C

[Više]
Vetar 210º 9kt
Vidljivost >10km
Vreme -
Oblaci Overcast 1500ft
Pritisak
Promena -
Neobrađeno KHYA 230248Z 21009KT 10SM OVC015 01/M01 A2981 RMK AO2 T00111011

MVFR

1.1°C / -1.7°C

[Više]
Vetar 200º 7kt
Vidljivost >10km
Vreme -
Oblaci Overcast 1400ft
Pritisak
Promena -
Neobrađeno KHYA 230211Z 20007KT 10SM OVC014 01/M02 A2981 RMK AO2 T00111017

MVFR

1.1°C / -2.2°C

[Više]
Vetar 210º 7kt
Vidljivost >10km
Vreme -
Oblaci Overcast 1500ft
Pritisak 1010
Promena -
Neobrađeno KHYA 230056Z 21007KT 10SM OVC015 01/M02 A2982 RMK AO2 SLP101 T00111022

MVFR

0.6°C / -2.2°C

[Više]
Vetar 210º 8kt
Vidljivost >10km
Vreme -
Oblaci Overcast 1500ft
Pritisak
Promena -
Neobrađeno KHYA 230036Z 21008KT 10SM OVC015 01/M02 A2983 RMK AO2 T00061022

MVFR

0.6°C / -2.2°C

[Više]
Vetar 220º 10kt
Vidljivost >10km
Vreme -
Oblaci Broken Clouds 1400ft
Overcast 12000ft
Pritisak
Promena -
Neobrađeno KHYA 230017Z 22010KT 10SM BKN014 OVC120 01/M02 A2983 RMK AO2 T00061022

MVFR

0°C / -2.8°C

[Više]
Vetar 220º 8kt
Vidljivost >10km
Vreme -
Oblaci Broken Clouds 1500ft
Pritisak 1010
Promena -
Neobrađeno KHYA 222356Z 22008KT 10SM BKN015 00/M03 A2984 RMK AO2 SLP106 T00001028 10011 21006 56006

VFR

0°C / -3.3°C

[Više]
Vetar 230º 7kt
Vidljivost >10km
Vreme -
Oblaci Few Clouds 12000ft
Pritisak 1011
Promena -
Neobrađeno KHYA 222256Z 23007KT 10SM FEW120 00/M03 A2985 RMK AO2 SLP111 T00001033

VFR

0.6°C / -3.9°C

[Više]
Vetar 220º 11kt
Vidljivost >10km
Vreme -
Oblaci Clear
Pritisak 1011
Promena -
Neobrađeno KHYA 222156Z 22011KT 10SM CLR 01/M04 A2986 RMK AO2 SLP112 T00061039

VFR

1.1°C / -3.3°C

[Više]
Vetar 200º 10kt
Vidljivost >10km
Vreme -
Oblaci Clear
Pritisak 1011
Promena -
Neobrađeno KHYA 222056Z 20010KT 10SM CLR 01/M03 A2987 RMK AO2 SLP118 T00111033 56026

VFR

0.6°C / -3.3°C

[Više]
Vetar 220º 10kt
Vidljivost >10km
Vreme -
Oblaci Clear
Pritisak 1012
Promena -
Neobrađeno KHYA 221956Z 22010KT 10SM CLR 01/M03 A2990 RMK AO2 SLP127 T00061033

VFR

1.1°C / -3.9°C

[Više]
Vetar 210º 9kt
Vidljivost >10km
Vreme -
Oblaci Clear
Pritisak 1013
Promena -
Neobrađeno KHYA 221856Z 21009KT 10SM CLR 01/M04 A2991 RMK AO2 SLP131 T00111039

VFR

0.6°C / -4.4°C

[Više]
Vetar 210º 6kt
Vidljivost >10km
Vreme -
Oblaci Clear
Pritisak 1014
Promena -
Neobrađeno KHYA 221756Z 21006KT 10SM CLR 01/M04 A2995 RMK AO2 SLP144 T00061044 10011 21072 57039

VFR

0.6°C / -4.4°C

[Više]
Vetar 200º 5kt
Vidljivost >10km
Vreme -
Oblaci Clear
Pritisak 1015
Promena -
Neobrađeno KHYA 221656Z 20005KT 10SM CLR 01/M04 A2999 RMK AO2 SLP157 T00061044

VFR

0.6°C / -3.9°C

[Više]
Vetar 5kt
Vidljivost >10km
Vreme -
Oblaci Clear
Pritisak 1017
Promena -
Neobrađeno KHYA 221556Z VRB05KT 10SM CLR 01/M04 A3003 RMK AO2 SLP170 T00061039

VFR

0°C / -4.4°C

[Više]
Vetar 230º 4kt
Vidljivost >10km
Vreme -
Oblaci Few Clouds 2100ft
Pritisak 1018
Promena -
Neobrađeno KHYA 221456Z 23004KT 10SM FEW021 00/M04 A3007 RMK AO2 SLP183 T00001044 56019

MVFR

0°C / -3.3°C

[Više]
Vetar 40º 4kt
Vidljivost >10km
Vreme -
Oblaci Overcast 2100ft
Pritisak 1019
Promena -
Neobrađeno KHYA 221356Z 04004KT 10SM OVC021 00/M03 A3009 RMK AO2 SLP192 T00001033

MVFR

-3.3°C / -5.6°C

[Više]
Vetar variable 0kt
Vidljivost >10km
Vreme -
Oblaci Broken Clouds 2100ft
Pritisak 1020
Promena -
Neobrađeno KHYA 221256Z 00000KT 10SM BKN021 M03/M06 A3012 RMK AO2 SLP202 T10331056

MVFR

-5.6°C / -6.1°C

[Više]
Vetar variable 0kt
Vidljivost >10km
Vreme -
Oblaci Broken Clouds 2100ft
Pritisak
Promena -
Neobrađeno KHYA 221229Z 00000KT 10SM BKN021 M06/M06 A3013 RMK AO2 T10561061

VFR

-6.7°C / -8.3°C

[Više]
Vetar variable 0kt
Vidljivost >10km
Vreme -
Oblaci Few Clouds 1900ft
Pritisak 1020
Promena -
Neobrađeno KHYA 221156Z 00000KT 10SM FEW019 M07/M08 A3012 RMK AO2 SLP203 I1000 I6000 T10671083 11044 21078 56014

VFR

-7.2°C / -8.9°C

[Više]
Vetar variable 0kt
Vidljivost >10km
Vreme -
Oblaci Clear
Pritisak 1020
Promena -
Neobrađeno KHYA 221056Z 00000KT 10SM CLR M07/M09 A3013 RMK AO2 SLP203 I1000 T10721089

VFR

-6.1°C / -7.8°C

[Više]
Vetar variable 0kt
Vidljivost >10km
Vreme -
Oblaci Scattered Clouds 2000ft
Pritisak 1021
Promena -
Neobrađeno KHYA 220956Z AUTO 00000KT 10SM SCT020 M06/M08 A3015 RMK AO2 SLP211 I1000 T10611078

TAF za Барнстабл (KHYA)

From till


From till Wind 210º 8kt. Visibility 9700m. Scattered Clouds 20000ft.
From till Wind 180º 11kt. Gust 20kt. Visibility 9700m. in the Vicinity Showers . Overcast 3000ft.
From till Wind 160º 12kt. Gust 20kt. Visibility 9700m. Overcast 4000ft.
From till Wind 180º 13kt. Gust 21kt. Visibility 9700m. Light Rain . Overcast 5000ft.
From till Wind 220º 6kt. Visibility 4800m. Light Rain Mist . Overcast 800ft.

Neobrađeno: KHYA 222320Z 2300/2324 21008KT P6SM SCT200 FM230600 18011G20KT P6SM VCSH OVC030 FM231200 16012G20KT P6SM OVC040 FM231600 18013G21KT 6SM -RA OVC050 FM232200 22006KT 3SM -RA BR OVC008

rainNOW: Trenutna prognoza za kišu za Барнстабл i okolinu (radijus 25 km)

0.0 mm
0.0 mm
0.2 mm
0.5 mm
0.5 mm
0.3 mm
0.5 mm
0.4 mm
0.5 mm
0.6 mm
0.6 mm
0.2 mm

Radar i padavine kratka prognoza za Барнстабл

Rominjati
Laka
Umereno
Teška
Vrlo teška
Grad

Marker lokacije postavljen je na Барнстабл. Ova animacija prikazuje radar za padavine za izabrani vremenski opseg, kao i 1h prognozu. Narandžasti krstovi označavaju munju. Podatke obezbedio nowcast.de (dostupni u SAD, Evropi, Australiji). Kiša ili slab sneg mogu biti nevidljivi za radar. Intenzitet padavina je označen bojom, u rasponu od tirkizne do crvene.

Trenutni satelitski snimci za Барнстабл, Сједињене Државе

Marker lokacije postavljen je na Барнстабл. [Više]

Satelitski snimci u realnom vremenu kombinuju vidljivu svetlost tokom dana sa infracrvenim zračenjem tokom noći. Noću slika nije tamna jer infracrveno zračenje može otkriti temperaturne razlike. Nažalost, niski oblaci i magla teško se mogu razlikovati od temperature zemlje tako da mogu biti skoro nevidljivi tokom noći. Meteosat satelitski snimci za Evropu se ažuriraju u realnom vremenu na svakih 5 minuta. Snimci GOES-16/GOES-17 (Severna i Južna Amerika) i Himavari (Azija) ažuriraju se na svakih 10 minuta.

Padavine se procenjuju pomoću radara i satelita. Procene padavina sa satelita su manje tačne noću nego tokom dana.

© 2024 meteoblue, NOAA Satellites GOES-16 and EUMETSAT. Podaci za munje obezbeđeni od nowcast.

Nazad na vrh
×
Zdravo,
izgleda da koristite blokator oglasa.

Oglašavanje je neophodno za održavanje naše besplatne veb stranice sa jedinstvenim detaljima i tačnošću.

Molimo vas da stavite na belu listu www.meteoblue.com na svom blokatoru oglasa ili razmislite o kupovini nekog od naših proizvoda:

Već imate pretplatu?
Onda se prijavite.